createdAt,value
2022-08-05T00:01:28.612Z,95434.44
2022-08-05T00:03:57.242Z,95434.56
2022-08-05T00:06:28.933Z,95431.41
2022-08-05T00:08:59.712Z,95430.59
2022-08-05T00:11:34.484Z,95425.22
2022-08-05T00:14:02.492Z,95426.94
2022-08-05T00:16:52.448Z,95417.09
2022-08-05T00:19:21.594Z,95417.78
2022-08-05T00:21:49.934Z,95426.53
2022-08-05T00:24:23.270Z,95423.53
2022-08-05T00:26:54.152Z,95419.88
2022-08-05T00:29:22.618Z,95430.22
2022-08-05T00:32:10.867Z,95420.25
2022-08-05T00:34:56.561Z,95420.78
2022-08-05T00:37:27.319Z,95429.66
2022-08-05T00:40:14.332Z,95432.88
2022-08-05T00:42:49.128Z,95438.59
2022-08-05T00:45:17.291Z,95437.47
2022-08-05T00:47:57.817Z,95437.50
2022-08-05T00:50:33.050Z,95431.63
2022-08-05T00:53:00.255Z,95433.72
2022-08-05T00:55:42.382Z,95438.63
2022-08-05T00:58:13.594Z,95431.44
2022-08-05T01:00:42.097Z,95429.38
2022-08-05T01:03:10.552Z,95427.31
2022-08-05T01:05:49.631Z,95430.50
2022-08-05T01:08:40.697Z,95427.31
2022-08-05T01:11:11.916Z,95427.31
2022-08-05T01:13:58.890Z,95422.56
2022-08-05T01:16:32.471Z,95424.47
2022-08-05T01:19:12.014Z,95429.22
2022-08-05T01:22:24.240Z,95418.75
2022-08-05T01:25:20.931Z,95416.06
2022-08-05T01:28:17.133Z,95417.81
2022-08-05T01:30:53.850Z,95413.81
2022-08-05T01:33:35.424Z,95416.69
2022-08-05T01:36:13.112Z,95410.94
2022-08-05T01:38:45.749Z,95408.75
2022-08-05T01:41:21.697Z,95407.44
2022-08-05T01:43:52.154Z,95404.16
2022-08-05T01:46:42.984Z,95408.88
2022-08-05T01:49:23.631Z,95415.22
2022-08-05T01:51:58.232Z,95413.03
2022-08-05T01:54:32.536Z,95410.13
2022-08-05T01:58:10.553Z,95401.09
2022-08-05T01:59:55.351Z,95414.41
2022-08-05T02:02:26.197Z,95409.97
2022-08-05T02:05:12.249Z,95407.75
2022-08-05T02:07:39.971Z,95408.53
2022-08-05T02:10:08.139Z,95416.91
2022-08-05T02:12:43.371Z,95405.53
2022-08-05T02:15:19.635Z,95414.06
2022-08-05T02:18:31.017Z,95414.38
2022-08-05T02:20:49.690Z,95411.16
2022-08-05T02:23:24.328Z,95409.59
2022-08-05T02:25:53.910Z,95414.50
2022-08-05T02:28:28.961Z,95410.84
2022-08-05T02:31:05.208Z,95416.88
2022-08-05T02:33:39.651Z,95413.84
2022-08-05T02:36:13.635Z,95416.22
2022-08-05T02:38:53.304Z,95411.19
2022-08-05T02:41:28.460Z,95413.13
2022-08-05T02:44:11.961Z,95424.06
2022-08-05T02:46:58.816Z,95416.91
2022-08-05T02:49:35.669Z,95417.06
2022-08-05T02:52:08.854Z,95419.75
2022-08-05T02:54:41.408Z,95422.44
2022-08-05T02:58:11.988Z,95420.56
2022-08-05T03:00:01.920Z,95420.56
2022-08-05T03:02:37.130Z,95412.00
2022-08-05T03:05:08.589Z,95419.75
2022-08-05T03:07:59.220Z,95426.44
2022-08-05T03:10:27.155Z,95421.03
2022-08-05T03:12:54.409Z,95409.66
2022-08-05T03:15:23.384Z,95412.16
2022-08-05T03:17:53.981Z,95411.38
2022-08-05T03:20:24.538Z,95410.59
2022-08-05T03:22:53.216Z,95406.78
2022-08-05T03:25:33.241Z,95409.97
2022-08-05T03:28:14.092Z,95413.50
2022-08-05T03:30:42.595Z,95405.69
2022-08-05T03:33:11.630Z,95406.28
2022-08-05T03:35:40.715Z,95412.31
2022-08-05T03:38:10.629Z,95405.03
2022-08-05T03:40:40.939Z,95405.22
2022-08-05T03:43:59.131Z,95409.00
2022-08-05T03:45:58.316Z,95409.50
2022-08-05T03:48:29.104Z,95412.81
2022-08-05T03:52:37.774Z,95417.88
2022-08-05T03:55:52.518Z,95409.13
2022-08-05T03:56:46.325Z,95405.31
2022-08-05T03:59:20.205Z,95408.03
2022-08-05T04:01:51.952Z,95405.31
2022-08-05T04:04:23.588Z,95409.31
2022-08-05T04:06:54.961Z,95411.03
2022-08-05T04:09:26.443Z,95403.59
2022-08-05T04:11:56.357Z,95408.16
2022-08-05T04:14:29.474Z,95411.81
2022-08-05T04:16:57.413Z,95409.75
2022-08-05T04:19:26.148Z,95417.66
2022-08-05T04:22:10.216Z,95410.50
2022-08-05T04:24:44.377Z,95412.88
2022-08-05T04:27:19.760Z,95404.50
2022-08-05T04:30:09.509Z,95411.94
2022-08-05T04:32:37.766Z,95417.75
2022-08-05T04:35:13.536Z,95419.03
2022-08-05T04:38:02.783Z,95421.06
2022-08-05T04:40:34.672Z,95427.00
2022-08-05T04:43:02.230Z,95426.78
2022-08-05T04:45:47.753Z,95431.25
2022-08-05T04:48:27.079Z,95439.78
2022-08-05T04:51:02.632Z,95436.31
2022-08-05T04:53:33.379Z,95442.78
2022-08-05T04:56:33.382Z,95435.22
2022-08-05T04:58:50.269Z,95442.19
2022-08-05T05:02:05.987Z,95446.84
2022-08-05T05:04:05.356Z,95443.34
2022-08-05T05:06:40.281Z,95447.50
2022-08-05T05:09:14.062Z,95451.59
2022-08-05T05:11:55.643Z,95447.75
2022-08-05T05:14:27.708Z,95452.72
2022-08-05T05:16:59.518Z,95454.53
2022-08-05T05:19:36.149Z,95453.44
2022-08-05T05:22:23.591Z,95453.84
2022-08-05T05:24:56.917Z,95446.72
2022-08-05T05:27:41.781Z,95465.69
2022-08-05T05:30:29.497Z,95472.00
2022-08-05T05:33:00.587Z,95462.72
2022-08-05T05:35:37.589Z,95463.88
2022-08-05T05:38:09.223Z,95462.22
2022-08-05T05:40:48.261Z,95481.44
2022-08-05T05:43:21.837Z,95466.63
2022-08-05T05:45:55.191Z,95479.84
2022-08-05T05:48:27.325Z,95478.03
2022-08-05T05:50:55.169Z,95473.09
2022-08-05T05:53:23.888Z,95474.72
2022-08-05T05:56:00.980Z,95484.03
2022-08-05T05:58:32.315Z,95497.66
2022-08-05T06:01:02.180Z,95492.22
2022-08-05T06:04:00.522Z,95490.75
2022-08-05T06:06:31.081Z,95488.91
2022-08-05T06:09:03.972Z,95484.88
2022-08-05T06:11:31.616Z,95483.28
2022-08-05T06:14:00.424Z,95487.28
2022-08-05T06:16:36.747Z,95495.34
2022-08-05T06:19:07.054Z,95490.72
2022-08-05T06:21:37.367Z,95495.81
2022-08-05T06:24:11.619Z,95503.63
2022-08-05T06:26:52.011Z,95506.16
2022-08-05T06:29:25.185Z,95511.38
2022-08-05T06:32:24.943Z,95507.50
2022-08-05T06:34:56.707Z,95498.56
2022-08-05T06:37:56.202Z,95509.81
2022-08-05T06:40:20.546Z,95503.66
2022-08-05T06:42:52.267Z,95504.34
2022-08-05T06:45:44.485Z,95508.94
2022-08-05T06:48:44.092Z,95504.56
2022-08-05T06:50:55.930Z,95507.22
2022-08-05T06:53:27.797Z,95507.78
2022-08-05T06:55:57.352Z,95515.59
2022-08-05T06:58:35.418Z,95511.56
2022-08-05T07:01:06.561Z,95513.59
2022-08-05T07:03:34.999Z,95508.06
2022-08-05T07:06:06.076Z,95509.06
2022-08-05T07:08:42.270Z,95510.69
2022-08-05T07:11:15.400Z,95504.22
2022-08-05T07:13:57.994Z,95510.47
2022-08-05T07:17:56.010Z,95510.84
2022-08-05T07:19:16.157Z,95514.13
2022-08-05T07:22:01.658Z,95522.28
2022-08-05T07:24:29.896Z,95512.63
2022-08-05T07:26:58.790Z,95512.47
2022-08-05T07:30:23.827Z,95510.31
2022-08-05T07:32:14.709Z,95524.38
2022-08-05T07:34:42.577Z,95524.97
2022-08-05T07:37:11.714Z,95519.22
2022-08-05T07:40:04.013Z,95527.94
2022-08-05T07:42:31.821Z,95519.53
2022-08-05T07:45:01.050Z,95522.38
2022-08-05T07:47:41.943Z,95537.75
2022-08-05T07:50:10.253Z,95534.03
2022-08-05T07:52:39.372Z,95535.97
2022-08-05T07:55:15.946Z,95525.66
2022-08-05T07:58:02.850Z,95540.06
2022-08-05T08:00:31.636Z,95531.53
2022-08-05T08:03:13.960Z,95533.38
2022-08-05T08:05:47.578Z,95528.94
2022-08-05T08:08:19.775Z,95529.84
2022-08-05T08:10:48.985Z,95529.88
2022-08-05T08:13:21.987Z,95528.31
2022-08-05T08:16:34.948Z,95530.63
2022-08-05T08:18:50.015Z,95526.69
2022-08-05T08:21:17.980Z,95524.88
2022-08-05T08:24:02.530Z,95534.84
2022-08-05T08:26:31.833Z,95535.97
2022-08-05T08:29:21.468Z,95539.56
2022-08-05T08:31:49.698Z,95538.09
2022-08-05T08:34:18.629Z,95540.91
2022-08-05T08:36:49.069Z,95542.97
2022-08-05T08:39:20.105Z,95543.63
2022-08-05T08:41:50.945Z,95549.16
2022-08-05T08:45:22.490Z,95551.91
2022-08-05T08:47:47.333Z,95554.28
2022-08-05T08:50:30.150Z,95554.16
2022-08-05T08:52:56.823Z,95553.25
2022-08-05T08:56:01.688Z,95553.41
2022-08-05T08:58:13.177Z,95558.47
2022-08-05T09:00:42.241Z,95547.84
2022-08-05T09:03:10.650Z,95549.81
2022-08-05T09:06:07.413Z,95559.72
2022-08-05T09:08:27.378Z,95558.50
2022-08-05T09:10:57.898Z,95546.53
2022-08-05T09:13:31.450Z,95548.47
2022-08-05T09:16:00.832Z,95555.28
2022-08-05T09:18:29.772Z,95555.50
2022-08-05T09:20:57.014Z,95546.34
2022-08-05T09:23:27.199Z,95549.81
2022-08-05T09:26:09.179Z,95543.28
2022-08-05T09:28:39.514Z,95530.00
2022-08-05T09:31:43.327Z,95542.69
2022-08-05T09:33:59.633Z,95545.47
2022-08-05T09:36:54.430Z,95543.97
2022-08-05T09:39:39.331Z,95543.75
2022-08-05T09:42:17.290Z,95533.72
2022-08-05T09:44:56.098Z,95539.03
2022-08-05T09:47:36.478Z,95541.94
2022-08-05T09:50:18.149Z,95544.41
2022-08-05T09:53:02.215Z,95546.53
2022-08-05T09:55:58.101Z,95536.22
2022-08-05T09:58:22.874Z,95541.97
2022-08-05T10:00:56.850Z,95540.72
2022-08-05T10:03:25.730Z,95536.84
2022-08-05T10:06:15.689Z,95532.88
2022-08-05T10:08:43.297Z,95529.88
2022-08-05T10:11:21.350Z,95534.94
2022-08-05T10:13:54.622Z,95520.16
2022-08-05T10:16:30.330Z,95516.34
2022-08-05T10:19:01.611Z,95512.44
2022-08-05T10:21:40.868Z,95514.75
2022-08-05T10:24:10.925Z,95505.06
2022-08-05T10:26:52.086Z,95500.50
2022-08-05T10:29:23.874Z,95512.88
2022-08-05T10:32:52.724Z,95506.22
2022-08-05T10:34:57.812Z,95493.97
2022-08-05T10:37:37.209Z,95501.91
2022-08-05T10:40:20.576Z,95501.38
2022-08-05T10:43:02.739Z,95496.03
2022-08-05T10:45:40.256Z,95496.50
2022-08-05T10:48:38.366Z,95490.78
2022-08-05T10:51:22.037Z,95491.09
2022-08-05T10:53:54.651Z,95488.16
2022-08-05T10:56:26.081Z,95484.63
2022-08-05T10:59:12.624Z,95484.00
2022-08-05T11:02:14.745Z,95491.75
2022-08-05T11:04:56.233Z,95487.00
2022-08-05T11:07:32.974Z,95481.59
2022-08-05T11:10:22.229Z,95486.06
2022-08-05T11:12:55.793Z,95477.41
2022-08-05T11:15:59.582Z,95479.66
2022-08-05T11:18:27.195Z,95478.94
2022-08-05T11:20:57.752Z,95478.47
2022-08-05T11:23:49.843Z,95473.88
2022-08-05T11:26:28.710Z,95466.97
2022-08-05T11:29:13.466Z,95468.31
2022-08-05T11:31:54.089Z,95466.19
2022-08-05T11:34:37.202Z,95460.19
2022-08-05T11:37:06.172Z,95462.78
2022-08-05T11:40:00.499Z,95454.88
2022-08-05T11:42:37.754Z,95455.84
2022-08-05T11:45:14.275Z,95456.03
2022-08-05T11:47:54.779Z,95447.41
2022-08-05T11:50:22.371Z,95443.13
2022-08-05T11:52:53.181Z,95441.63
2022-08-05T11:55:32.340Z,95443.13
2022-08-05T11:58:10.089Z,95437.47
2022-08-05T12:00:41.269Z,95433.44
2022-08-05T12:03:29.194Z,95435.91
2022-08-05T12:06:01.071Z,95440.19
2022-08-05T12:08:28.334Z,95426.69
2022-08-05T12:11:05.558Z,95424.88
2022-08-05T12:13:48.813Z,95422.63
2022-08-05T12:16:19.187Z,95422.41
2022-08-05T12:18:49.087Z,95414.63
2022-08-05T12:21:23.968Z,95422.13
2022-08-05T12:23:58.313Z,95421.69
2022-08-05T12:26:33.128Z,95417.34
2022-08-05T12:29:01.315Z,95411.31
2022-08-05T12:31:33.587Z,95418.25
2022-08-05T12:34:14.598Z,95413.41
2022-08-05T12:36:49.892Z,95404.53
2022-08-05T12:39:17.742Z,95412.72
2022-08-05T12:41:47.110Z,95397.81
2022-08-05T12:44:21.662Z,95400.44
2022-08-05T12:47:00.673Z,95398.13
2022-08-05T12:50:02.047Z,95400.72
2022-08-05T12:52:32.307Z,95389.47
2022-08-05T12:55:17.128Z,95387.47
2022-08-05T12:58:48.356Z,95382.19
2022-08-05T13:02:02.361Z,95382.28
2022-08-05T13:03:20.375Z,95372.53
2022-08-05T13:05:50.233Z,95369.91
2022-08-05T13:08:18.691Z,95368.88
2022-08-05T13:10:50.373Z,95366.16
2022-08-05T13:14:04.667Z,95364.50
2022-08-05T13:16:15.273Z,95355.31
2022-08-05T13:18:51.919Z,95347.28
2022-08-05T13:21:19.049Z,95347.31
2022-08-05T13:23:50.808Z,95349.13
2022-08-05T13:26:22.881Z,95346.16
2022-08-05T13:28:59.181Z,95341.16
2022-08-05T13:31:34.072Z,95344.13
2022-08-05T13:34:22.358Z,95341.41
2022-08-05T13:36:52.892Z,95337.22
2022-08-05T13:40:13.513Z,95333.63
2022-08-05T13:42:14.522Z,95330.41
2022-08-05T13:44:45.746Z,95324.97
2022-08-05T13:47:28.159Z,95324.19
2022-08-05T13:50:04.354Z,95326.16
2022-08-05T13:52:35.681Z,95333.13
2022-08-05T13:55:07.998Z,95326.81
2022-08-05T13:57:51.507Z,95329.50
2022-08-05T14:00:27.042Z,95330.91
2022-08-05T14:02:56.060Z,95337.47
2022-08-05T14:05:29.348Z,95341.59
2022-08-05T14:08:21.325Z,95339.75
2022-08-05T14:11:03.241Z,95327.50
2022-08-05T14:13:42.533Z,95327.84
2022-08-05T14:16:11.733Z,95333.88
2022-08-05T14:18:44.017Z,95327.50
2022-08-05T14:22:07.456Z,95322.69
2022-08-05T14:23:58.412Z,95319.53
2022-08-05T14:26:38.576Z,95318.91
2022-08-05T14:29:16.796Z,95318.69
2022-08-05T14:32:03.858Z,95323.53
2022-08-05T14:34:34.924Z,95328.88
2022-08-05T14:37:03.509Z,95335.63
2022-08-05T14:39:31.857Z,95335.63
2022-08-05T14:42:21.256Z,95340.19
2022-08-05T14:44:49.391Z,95332.66
2022-08-05T14:48:02.495Z,95332.03
2022-08-05T14:50:14.255Z,95329.69
2022-08-05T14:52:52.969Z,95320.72
2022-08-05T14:55:21.091Z,95323.22
2022-08-05T14:57:55.806Z,95331.09
2022-08-05T15:00:27.706Z,95328.53
2022-08-05T15:02:57.195Z,95322.56
2022-08-05T15:05:30.022Z,95320.50
2022-08-05T15:08:17.869Z,95325.22
2022-08-05T15:10:59.712Z,95315.09
2022-08-05T15:13:28.636Z,95325.50
2022-08-05T15:16:13.476Z,95319.03
2022-08-05T15:18:42.277Z,95310.41
2022-08-05T15:21:14.354Z,95316.91
2022-08-05T15:23:48.066Z,95318.09
2022-08-05T15:26:15.431Z,95330.00
2022-08-05T15:28:58.993Z,95334.13
2022-08-05T15:31:34.945Z,95328.94
2022-08-05T15:34:18.397Z,95338.09
2022-08-05T15:36:51.011Z,95332.69
2022-08-05T15:40:59.682Z,95331.88
2022-08-05T15:42:50.320Z,95338.91
2022-08-05T15:44:54.601Z,95329.63
2022-08-05T15:47:21.799Z,95326.91
2022-08-05T15:49:59.127Z,95331.88
2022-08-05T15:52:29.234Z,95339.34
2022-08-05T15:55:16.141Z,95331.44
2022-08-05T15:57:44.923Z,95344.78
2022-08-05T16:00:13.150Z,95331.44
2022-08-05T16:02:44.132Z,95324.44
2022-08-05T16:05:12.730Z,95331.44
2022-08-05T16:07:46.675Z,95325.00
2022-08-05T16:10:16.371Z,95331.66
2022-08-05T16:12:50.291Z,95340.59
2022-08-05T16:15:18.624Z,95341.81
2022-08-05T16:17:49.674Z,95342.72
2022-08-05T16:20:26.291Z,95342.72
2022-08-05T16:22:55.171Z,95364.09
2022-08-05T16:25:33.985Z,95366.81
2022-08-05T16:28:05.519Z,95366.22
2022-08-05T16:30:34.478Z,95375.94
2022-08-05T16:33:03.518Z,95380.69
2022-08-05T16:35:33.793Z,95387.91
2022-08-05T16:38:18.331Z,95394.94
2022-08-05T16:40:59.799Z,95392.28
2022-08-05T16:43:31.531Z,95386.84
2022-08-05T16:46:04.278Z,95384.16
2022-08-05T16:48:36.032Z,95388.41
2022-08-05T16:51:09.492Z,95392.41
2022-08-05T16:54:02.502Z,95405.63
2022-08-05T16:56:26.072Z,95413.50
2022-08-05T16:58:53.387Z,95432.34
2022-08-05T17:01:20.983Z,95433.66
2022-08-05T17:03:48.168Z,95451.81
2022-08-05T17:06:17.107Z,95495.19
2022-08-05T17:08:53.165Z,95499.31
2022-08-05T17:11:23.330Z,95501.09
2022-08-05T17:13:54.802Z,95500.63
2022-08-05T17:16:36.376Z,95492.03
2022-08-05T17:19:07.719Z,95504.59
2022-08-05T17:21:39.515Z,95533.34
2022-08-05T17:24:19.569Z,95545.56
2022-08-05T17:26:56.090Z,95566.81
2022-08-05T17:29:34.086Z,95556.94
2022-08-05T17:32:11.703Z,95540.00
2022-08-05T17:34:44.148Z,95560.19
2022-08-05T17:37:41.118Z,95604.44
2022-08-05T17:40:00.457Z,95587.84
2022-08-05T17:42:30.118Z,95619.66
2022-08-05T17:44:59.987Z,95594.75
2022-08-05T17:47:27.595Z,95600.28
2022-08-05T17:50:04.248Z,95604.16
2022-08-05T17:52:52.613Z,95596.31
2022-08-05T17:55:20.527Z,95610.78
2022-08-05T17:57:50.006Z,95621.00
2022-08-05T18:00:18.578Z,95631.72
2022-08-05T18:02:46.487Z,95629.69
2022-08-05T18:05:16.793Z,95631.72
2022-08-05T18:07:46.248Z,95628.88
2022-08-05T18:10:21.204Z,95630.63
2022-08-05T18:12:48.726Z,95644.88
2022-08-05T18:15:16.091Z,95651.03
2022-08-05T18:17:58.813Z,95648.75
2022-08-05T18:20:32.098Z,95649.25
2022-08-05T18:23:09.191Z,95653.03
2022-08-05T18:25:38.746Z,95657.44
2022-08-05T18:28:06.882Z,95667.06
2022-08-05T18:30:34.300Z,95680.91
2022-08-05T18:33:02.348Z,95672.56
2022-08-05T18:36:00.795Z,95679.44
2022-08-05T18:38:19.050Z,95674.84
2022-08-05T18:41:53.118Z,95689.94
2022-08-05T18:43:42.785Z,95701.28
2022-08-05T18:46:15.507Z,95684.78
2022-08-05T18:48:47.732Z,95689.25
2022-08-05T18:52:02.971Z,95690.31
2022-08-05T18:54:07.490Z,95722.84
2022-08-05T18:56:36.529Z,95720.56
2022-08-05T18:59:43.686Z,95710.72
2022-08-05T19:01:58.103Z,95708.19
2022-08-05T19:04:25.809Z,95720.88
2022-08-05T19:06:53.604Z,95711.41
2022-08-05T19:09:22.525Z,95734.91
2022-08-05T19:12:00.166Z,95738.47
2022-08-05T19:14:59.328Z,95751.94
2022-08-05T19:17:16.878Z,95751.44
2022-08-05T19:19:46.857Z,95761.53
2022-08-05T19:22:17.782Z,95760.41
2022-08-05T19:24:54.554Z,95789.31
2022-08-05T19:27:24.244Z,95784.59
2022-08-05T19:29:55.440Z,95791.41
2022-08-05T19:32:26.151Z,95801.16
2022-08-05T19:34:55.903Z,95790.88
2022-08-05T19:37:35.164Z,95791.38
2022-08-05T19:40:12.264Z,95795.47
2022-08-05T19:42:39.447Z,95797.59
2022-08-05T19:45:07.827Z,95791.78
2022-08-05T19:47:37.234Z,95793.97
2022-08-05T19:50:07.758Z,95793.47
2022-08-05T19:52:37.808Z,95788.13
2022-08-05T19:55:07.604Z,95780.38
2022-08-05T19:58:19.440Z,95790.78
2022-08-05T20:00:42.453Z,95791.53
2022-08-05T20:03:09.652Z,95791.75
2022-08-05T20:05:42.892Z,95797.50
2022-08-05T20:08:11.185Z,95803.50
2022-08-05T20:10:38.411Z,95813.41
2022-08-05T20:13:11.931Z,95818.91
2022-08-05T20:15:52.877Z,95819.50
2022-08-05T20:18:33.207Z,95820.78
2022-08-05T20:21:04.501Z,95820.50
2022-08-05T20:23:40.006Z,95826.78
2022-08-05T20:26:20.512Z,95826.78
2022-08-05T20:28:52.794Z,95828.03
2022-08-05T20:31:28.261Z,95843.72
2022-08-05T20:33:56.149Z,95854.81
2022-08-05T20:36:23.808Z,95843.88
2022-08-05T20:38:54.022Z,95861.28
2022-08-05T20:41:27.373Z,95855.84
2022-08-05T20:44:17.863Z,95856.66
2022-08-05T20:46:46.967Z,95862.38
2022-08-05T20:49:14.528Z,95863.13
2022-08-05T20:51:45.646Z,95875.66
2022-08-05T20:54:21.253Z,95879.97
2022-08-05T20:56:48.870Z,95888.44
2022-08-05T20:59:19.181Z,95878.00
2022-08-05T21:01:53.552Z,95879.31
2022-08-05T21:04:20.807Z,95896.72
2022-08-05T21:06:54.211Z,95904.31
2022-08-05T21:09:21.489Z,95902.88
2022-08-05T21:12:06.792Z,95906.25
2022-08-05T21:14:37.389Z,95902.91
2022-08-05T21:17:05.283Z,95900.16
2022-08-05T21:19:46.480Z,95903.78
2022-08-05T21:22:17.601Z,95905.75
2022-08-05T21:24:45.556Z,95907.03
2022-08-05T21:27:16.641Z,95910.44
2022-08-05T21:29:48.379Z,95911.25
2022-08-05T21:32:20.106Z,95919.69
2022-08-05T21:34:55.953Z,95917.94
2022-08-05T21:37:35.210Z,95929.69
2022-08-05T21:40:13.825Z,95918.75
2022-08-05T21:42:45.112Z,95909.75
2022-08-05T21:45:14.232Z,95897.00
2022-08-05T21:47:56.803Z,95886.63
2022-08-05T21:50:25.708Z,95886.03
2022-08-05T21:52:53.074Z,95885.63
2022-08-05T21:56:00.950Z,95898.38
2022-08-05T21:58:10.269Z,95892.59
2022-08-05T22:00:40.709Z,95886.41
2022-08-05T22:03:18.187Z,95887.19
2022-08-05T22:06:02.728Z,95874.44
2022-08-05T22:08:32.647Z,95884.53
2022-08-05T22:11:00.039Z,95888.03
2022-08-05T22:14:18.151Z,95891.09
2022-08-05T22:16:41.421Z,95892.06
2022-08-05T22:19:03.207Z,95880.34
2022-08-05T22:21:42.507Z,95886.72
2022-08-05T22:24:13.437Z,95884.06
2022-08-05T22:26:58.043Z,95890.25
2022-08-05T22:29:26.589Z,95890.25
2022-08-05T22:32:02.559Z,95883.66
2022-08-05T22:34:30.719Z,95884.13
2022-08-05T22:36:58.525Z,95884.91
2022-08-05T22:39:29.759Z,95880.75
2022-08-05T22:42:09.720Z,95876.47
2022-08-05T22:44:40.629Z,95879.22
2022-08-05T22:47:11.327Z,95875.63
2022-08-05T22:50:21.548Z,95880.19
2022-08-05T22:52:30.223Z,95887.28
2022-08-05T22:54:59.947Z,95882.88
2022-08-05T22:57:27.270Z,95889.44
2022-08-05T23:00:05.827Z,95893.41
2022-08-05T23:02:46.634Z,95892.81
2022-08-05T23:05:14.847Z,95887.44
2022-08-05T23:07:45.010Z,95885.63
2022-08-05T23:10:16.056Z,95889.78
2022-08-05T23:12:47.049Z,95879.84
2022-08-05T23:15:14.386Z,95884.34
2022-08-05T23:18:02.397Z,95873.09
2022-08-05T23:20:32.595Z,95870.03
2022-08-05T23:23:00.185Z,95877.88
2022-08-05T23:25:52.570Z,95875.41
2022-08-05T23:28:17.934Z,95884.53
2022-08-05T23:30:53.556Z,95884.53
2022-08-05T23:34:03.181Z,95880.34
2022-08-05T23:36:10.671Z,95871.06
2022-08-05T23:38:38.067Z,95857.94
2022-08-05T23:41:05.483Z,95850.22
2022-08-05T23:44:04.718Z,95851.75
2022-08-05T23:46:22.154Z,95862.03
2022-08-05T23:48:59.915Z,95861.84
2022-08-05T23:51:30.974Z,95856.25
2022-08-05T23:54:01.508Z,95847.38
2022-08-05T23:56:28.788Z,95848.47
2022-08-05T23:59:00.804Z,95860.16
